YTEF/TEF METAR and TAF weather

Enter ICAO airport designator
Station Type Date Time Source
YTEF METAR 2019/06/16 20:00 UTC NOAA

YTEF 162000Z AUTO 15012KT 9999 // NCD 13/M02 Q1019


Station Type Date Time Source
YTEF Decoded METAR 2019/06/16 20:00 UTC NOAA

Station name not available
Jun 16, 2019 - 04:00 PM EDT / 2019.06.16 2000 UTC
Wind: from the SSE (150 degrees) at 14 MPH (12 KT):0
Visibility: greater than 7 mile(s):0
Temperature: 55 F (13 C)
Dew Point: 28 F (-2 C)
Relative Humidity: 35%
Pressure (altimeter): 30.09 in. Hg (1019 hPa)
ob: YTEF 162000Z AUTO 15012KT 9999 // NCD 13/M02 Q1019
cycle: 20

Station Type Date Time Source
YTEF TAF 2017/06/24 02:03 UTC NOAA

TAF TAF YTEF 240051Z 2402/2414 12005KT CAVOK
FM240500 33005KT 9999 -SHRA SCT060 BKN100

Example: see airport list